createdAt,value
2018-05-10T00:02:12.654Z,20.05
2018-05-10T00:04:40.926Z,20.22
2018-05-10T00:07:09.206Z,20.32
2018-05-10T00:09:37.475Z,20.18
2018-05-10T00:12:05.766Z,20.09
2018-05-10T00:14:34.033Z,20.18
2018-05-10T00:17:02.313Z,20.15
2018-05-10T00:19:30.605Z,20.10
2018-05-10T00:21:58.879Z,19.97
2018-05-10T00:24:27.251Z,19.93
2018-05-10T00:26:55.437Z,19.92
2018-05-10T00:29:23.741Z,19.75
2018-05-10T00:31:52.010Z,19.82
2018-05-10T00:34:20.285Z,19.81
2018-05-10T00:36:48.566Z,19.65
2018-05-10T00:39:16.838Z,19.71
2018-05-10T00:41:45.118Z,19.69
2018-05-10T00:44:13.390Z,19.58
2018-05-10T00:46:41.675Z,19.57
2018-05-10T00:49:09.945Z,19.61
2018-05-10T00:51:38.219Z,19.44
2018-05-10T00:54:06.500Z,19.49
2018-05-10T00:56:34.777Z,19.62
2018-05-10T00:59:03.053Z,19.53
2018-05-10T01:01:31.329Z,19.55
2018-05-10T01:03:59.606Z,19.73
2018-05-10T01:06:27.882Z,19.84
2018-05-10T01:08:56.166Z,19.78
2018-05-10T01:11:24.438Z,19.75
2018-05-10T01:13:52.709Z,19.81
2018-05-10T01:16:20.990Z,19.54
2018-05-10T01:18:49.262Z,19.55
2018-05-10T01:21:17.554Z,19.28
2018-05-10T01:23:45.827Z,19.54
2018-05-10T01:26:14.118Z,19.34
2018-05-10T01:28:42.386Z,19.33
2018-05-10T01:31:10.658Z,19.40
2018-05-10T01:33:39.145Z,19.04
2018-05-10T01:36:13.942Z,19.18
2018-05-10T01:38:42.225Z,19.21
2018-05-10T01:41:10.500Z,19.07
2018-05-10T01:43:38.770Z,19.04
2018-05-10T01:46:07.057Z,19.06
2018-05-10T01:48:35.341Z,18.98
2018-05-10T01:51:03.625Z,18.89
2018-05-10T01:53:31.889Z,18.79
2018-05-10T01:56:00.217Z,18.89
2018-05-10T01:58:28.494Z,18.88
2018-05-10T02:00:56.770Z,18.64
2018-05-10T02:03:25.054Z,18.62
2018-05-10T02:05:53.326Z,18.64
2018-05-10T02:08:21.598Z,18.66
2018-05-10T02:10:49.877Z,18.79
2018-05-10T02:13:18.154Z,18.36
2018-05-10T02:15:46.749Z,18.41
2018-05-10T02:18:15.021Z,18.55
2018-05-10T02:20:43.298Z,18.63
2018-05-10T02:23:11.583Z,18.58
2018-05-10T02:25:39.850Z,18.43
2018-05-10T02:28:08.133Z,18.56
2018-05-10T02:30:36.417Z,18.56
2018-05-10T02:33:04.689Z,18.35
2018-05-10T02:35:32.977Z,18.47
2018-05-10T02:38:01.246Z,18.28
2018-05-10T02:40:29.554Z,18.44
2018-05-10T02:42:57.825Z,18.43
2018-05-10T02:45:26.097Z,18.30
2018-05-10T02:47:54.386Z,17.92
2018-05-10T02:50:22.656Z,18.00
2018-05-10T02:52:50.957Z,18.15
2018-05-10T02:55:19.233Z,18.24
2018-05-10T02:57:47.506Z,18.22
2018-05-10T03:00:15.788Z,18.17
2018-05-10T03:02:44.062Z,18.18
2018-05-10T03:05:12.349Z,17.85
2018-05-10T03:07:40.634Z,18.04
2018-05-10T03:10:08.913Z,17.97
2018-05-10T03:12:37.184Z,17.97
2018-05-10T03:15:05.462Z,17.63
2018-05-10T03:17:33.738Z,17.74
2018-05-10T03:20:02.022Z,17.60
2018-05-10T03:22:30.297Z,17.72
2018-05-10T03:24:58.577Z,17.46
2018-05-10T03:27:26.865Z,17.55
2018-05-10T03:29:55.141Z,17.33
2018-05-10T03:32:23.427Z,17.43
2018-05-10T03:34:51.714Z,17.52
2018-05-10T03:37:19.990Z,17.15
2018-05-10T03:39:48.279Z,17.36
2018-05-10T03:42:16.561Z,17.38
2018-05-10T03:44:44.862Z,17.33
2018-05-10T03:47:13.141Z,17.59
2018-05-10T03:49:41.418Z,17.46
2018-05-10T03:52:09.792Z,17.21
2018-05-10T03:54:38.014Z,17.30
2018-05-10T03:57:06.302Z,17.15
2018-05-10T03:59:34.578Z,17.04
2018-05-10T04:02:02.870Z,17.07
2018-05-10T04:04:42.818Z,17.25
2018-05-10T04:07:22.747Z,17.32
2018-05-10T04:10:02.876Z,16.87
2018-05-10T04:12:32.006Z,16.79
2018-05-10T04:15:00.378Z,17.01
2018-05-10T04:17:28.656Z,17.19
2018-05-10T04:19:56.937Z,17.29
2018-05-10T04:22:25.225Z,17.30
2018-05-10T04:24:53.501Z,17.18
2018-05-10T04:27:21.793Z,16.92
2018-05-10T04:29:50.078Z,16.72
2018-05-10T04:32:18.349Z,16.53
2018-05-10T04:34:46.645Z,16.69
2018-05-10T04:37:14.930Z,16.69
2018-05-10T04:39:43.653Z,16.51
2018-05-10T04:42:11.967Z,16.75
2018-05-10T04:44:40.231Z,16.69
2018-05-10T04:47:08.521Z,16.49
2018-05-10T04:49:36.805Z,16.37
2018-05-10T04:52:05.114Z,16.10
2018-05-10T04:54:33.406Z,15.98
2018-05-10T04:57:01.678Z,16.04
2018-05-10T04:59:29.962Z,16.24
2018-05-10T05:01:58.238Z,16.22
2018-05-10T05:04:26.530Z,16.31
2018-05-10T05:06:54.882Z,16.29
2018-05-10T05:09:23.085Z,16.56
2018-05-10T05:11:51.397Z,16.55
2018-05-10T05:14:19.649Z,16.50
2018-05-10T05:16:47.950Z,16.70
2018-05-10T05:19:16.226Z,16.48
2018-05-10T05:21:44.517Z,16.11
2018-05-10T05:24:12.806Z,16.13
2018-05-10T05:26:41.105Z,16.16
2018-05-10T05:29:09.398Z,16.10
2018-05-10T05:31:37.674Z,16.30
2018-05-10T05:34:05.951Z,16.11
2018-05-10T05:36:34.318Z,15.91
2018-05-10T05:39:02.510Z,15.95
2018-05-10T05:41:30.806Z,16.11
2018-05-10T05:43:59.089Z,15.95
2018-05-10T05:46:27.365Z,16.22
2018-05-10T05:48:55.654Z,16.00
2018-05-10T05:51:23.929Z,16.08
2018-05-10T05:53:52.221Z,16.24
2018-05-10T05:56:20.506Z,16.07
2018-05-10T05:58:48.781Z,16.10
2018-05-10T06:01:17.066Z,15.94
2018-05-10T06:03:45.343Z,16.13
2018-05-10T06:06:13.634Z,16.20
2018-05-10T06:08:42.958Z,15.87
2018-05-10T06:11:11.205Z,15.79
2018-05-10T06:13:39.522Z,15.82
2018-05-10T06:16:07.782Z,15.87
2018-05-10T06:18:36.069Z,15.96
2018-05-10T06:21:04.353Z,15.90
2018-05-10T06:23:32.631Z,16.05
2018-05-10T06:26:00.921Z,15.86
2018-05-10T06:28:29.210Z,15.92
2018-05-10T06:30:57.509Z,15.92
2018-05-10T06:33:25.791Z,16.00
2018-05-10T06:35:54.066Z,16.19
2018-05-10T06:38:22.357Z,16.12
2018-05-10T06:40:50.630Z,16.42
2018-05-10T06:43:18.918Z,16.46
2018-05-10T06:45:47.201Z,16.46
2018-05-10T06:48:15.481Z,16.36
2018-05-10T06:50:43.774Z,16.38
2018-05-10T06:53:12.061Z,16.43
2018-05-10T06:55:40.358Z,16.50
2018-05-10T06:58:08.641Z,16.75
2018-05-10T07:00:36.924Z,16.50
2018-05-10T07:03:05.214Z,16.66
2018-05-10T07:05:33.497Z,16.59
2018-05-10T07:08:01.791Z,16.79
2018-05-10T07:10:30.187Z,16.51
2018-05-10T07:12:58.418Z,16.75
2018-05-10T07:15:26.709Z,16.75
2018-05-10T07:17:54.992Z,16.89
2018-05-10T07:20:23.281Z,17.14
2018-05-10T07:22:51.561Z,16.76
2018-05-10T07:25:19.954Z,16.80
2018-05-10T07:27:48.121Z,16.89
2018-05-10T07:30:16.398Z,16.93
2018-05-10T07:32:44.721Z,17.11
2018-05-10T07:35:12.992Z,17.06
2018-05-10T07:37:41.270Z,17.28
2018-05-10T07:40:09.553Z,17.05
2018-05-10T07:42:37.837Z,17.24
2018-05-10T07:45:06.129Z,17.41
2018-05-10T07:47:34.421Z,17.47
2018-05-10T07:50:02.730Z,17.53
2018-05-10T07:52:31.014Z,17.77
2018-05-10T07:54:59.295Z,17.90
2018-05-10T07:57:27.589Z,17.76
2018-05-10T07:59:55.869Z,18.19
2018-05-10T08:02:24.172Z,18.19
2018-05-10T08:04:52.442Z,18.19
2018-05-10T08:07:20.719Z,18.01
2018-05-10T08:09:49.010Z,18.15
2018-05-10T08:12:17.285Z,18.28
2018-05-10T08:14:45.575Z,18.18
2018-05-10T08:17:13.867Z,18.43
2018-05-10T08:19:42.138Z,18.30
2018-05-10T08:22:10.450Z,18.28
2018-05-10T08:24:38.728Z,18.19
2018-05-10T08:27:07.006Z,18.33
2018-05-10T08:29:35.290Z,18.25
2018-05-10T08:32:03.566Z,18.36
2018-05-10T08:34:31.874Z,18.20
2018-05-10T08:37:00.150Z,18.42
2018-05-10T08:39:28.425Z,18.28
2018-05-10T08:41:56.709Z,18.31
2018-05-10T08:44:24.990Z,18.16
2018-05-10T08:46:53.530Z,17.99
2018-05-10T08:49:21.806Z,17.97
2018-05-10T08:51:50.188Z,18.06
2018-05-10T08:54:18.373Z,18.04
2018-05-10T08:56:46.666Z,18.00
2018-05-10T08:59:14.946Z,17.98
2018-05-10T09:01:43.226Z,18.35
2018-05-10T09:04:11.510Z,18.09
2018-05-10T09:06:39.789Z,18.18
2018-05-10T09:09:08.083Z,18.14
2018-05-10T09:11:36.367Z,18.33
2018-05-10T09:14:04.638Z,18.11
2018-05-10T09:16:32.934Z,18.36
2018-05-10T09:19:01.254Z,18.19
2018-05-10T09:21:29.547Z,18.42
2018-05-10T09:23:57.809Z,18.46
2018-05-10T09:26:26.094Z,18.38
2018-05-10T09:28:54.386Z,18.50
2018-05-10T09:31:22.675Z,18.43
2018-05-10T09:33:51.053Z,18.08
2018-05-10T09:36:19.266Z,18.05
2018-05-10T09:38:47.564Z,18.06
2018-05-10T09:41:15.854Z,18.12
2018-05-10T09:43:44.166Z,18.06
2018-05-10T09:46:12.472Z,18.28
2018-05-10T09:48:40.742Z,18.16
2018-05-10T09:51:09.023Z,17.97
2018-05-10T09:53:37.348Z,17.76
2018-05-10T09:56:05.614Z,17.87
2018-05-10T09:58:34.149Z,17.26
2018-05-10T10:01:02.435Z,17.33
2018-05-10T10:03:30.706Z,17.64
2018-05-10T10:05:58.997Z,17.83
2018-05-10T10:08:27.269Z,17.56
2018-05-10T10:10:55.572Z,17.62
2018-05-10T10:13:23.851Z,17.82
2018-05-10T10:15:52.129Z,17.91
2018-05-10T10:18:20.514Z,18.06
2018-05-10T10:20:48.790Z,17.90
2018-05-10T10:23:17.078Z,17.74
2018-05-10T10:25:45.354Z,17.66
2018-05-10T10:28:13.633Z,17.42
2018-05-10T10:30:41.930Z,17.27
2018-05-10T10:33:10.201Z,17.37
2018-05-10T10:35:38.509Z,17.28
2018-05-10T10:38:06.788Z,16.98
2018-05-10T10:40:35.054Z,17.04
2018-05-10T10:43:03.344Z,16.73
2018-05-10T10:45:31.697Z,16.61
2018-05-10T10:47:59.890Z,16.98
2018-05-10T10:50:28.169Z,16.63
2018-05-10T10:52:56.478Z,17.01
2018-05-10T10:55:24.721Z,16.99
2018-05-10T10:57:54.142Z,16.78
2018-05-10T11:00:22.450Z,17.24
2018-05-10T11:02:50.710Z,17.11
2018-05-10T11:05:18.987Z,17.37
2018-05-10T11:07:47.260Z,17.58
2018-05-10T11:10:15.535Z,17.48
2018-05-10T11:12:43.824Z,17.50
2018-05-10T11:15:12.149Z,17.65
2018-05-10T11:17:40.426Z,17.43
2018-05-10T11:20:08.703Z,17.58
2018-05-10T11:22:37.036Z,17.61
2018-05-10T11:25:05.271Z,17.48
2018-05-10T11:27:33.539Z,17.65
2018-05-10T11:30:01.806Z,17.10
2018-05-10T11:32:30.085Z,17.46
2018-05-10T11:34:58.349Z,17.61
2018-05-10T11:37:26.629Z,17.65
2018-05-10T11:39:54.905Z,17.69
2018-05-10T11:42:23.178Z,17.52
2018-05-10T11:44:51.457Z,17.54
2018-05-10T11:47:19.729Z,17.39
2018-05-10T11:49:48.018Z,17.33
2018-05-10T11:52:16.293Z,17.29
2018-05-10T11:54:44.565Z,16.66
2018-05-10T11:57:12.886Z,16.60
2018-05-10T11:59:41.130Z,16.68
2018-05-10T12:02:09.422Z,16.68
2018-05-10T12:04:37.690Z,16.82
2018-05-10T12:07:05.975Z,16.69
2018-05-10T12:09:34.252Z,16.63
2018-05-10T12:12:02.528Z,16.75
2018-05-10T12:14:30.813Z,16.72
2018-05-10T12:16:59.090Z,16.47
2018-05-10T12:19:27.366Z,16.28
2018-05-10T12:21:55.662Z,16.56
2018-05-10T12:24:23.930Z,16.25
2018-05-10T12:26:52.525Z,16.30
2018-05-10T12:29:20.805Z,16.49
2018-05-10T12:31:49.074Z,16.58
2018-05-10T12:34:17.366Z,16.58
2018-05-10T12:36:45.637Z,16.56
2018-05-10T12:39:13.937Z,16.42
2018-05-10T12:41:42.313Z,16.60
2018-05-10T12:44:10.478Z,16.74
2018-05-10T12:46:38.757Z,16.81
2018-05-10T12:49:07.031Z,16.83
2018-05-10T12:51:35.317Z,16.75
2018-05-10T12:54:03.592Z,16.91
2018-05-10T12:56:31.990Z,16.92
2018-05-10T12:59:00.186Z,17.09
2018-05-10T13:01:28.458Z,16.86
2018-05-10T13:03:56.767Z,16.91
2018-05-10T13:06:25.043Z,16.92
2018-05-10T13:08:53.322Z,16.88
2018-05-10T13:11:21.626Z,17.05
2018-05-10T13:13:49.905Z,17.20
2018-05-10T13:16:18.230Z,17.37
2018-05-10T13:18:46.510Z,17.57
2018-05-10T13:21:14.794Z,17.23
2018-05-10T13:23:43.113Z,17.24
2018-05-10T13:26:11.389Z,17.07
2018-05-10T13:28:39.702Z,17.30
2018-05-10T13:31:07.962Z,17.51
2018-05-10T13:33:36.258Z,17.56
2018-05-10T13:36:04.543Z,17.71
2018-05-10T13:38:32.817Z,17.30
2018-05-10T13:41:01.126Z,17.28
2018-05-10T13:43:29.406Z,17.28
2018-05-10T13:45:57.702Z,17.29
2018-05-10T13:48:26.076Z,17.72
2018-05-10T13:50:54.313Z,17.77
2018-05-10T13:53:22.607Z,17.59
2018-05-10T13:55:50.881Z,17.48
2018-05-10T13:58:19.537Z,17.74
2018-05-10T14:00:47.818Z,17.43
2018-05-10T14:03:16.097Z,17.73
2018-05-10T14:05:44.397Z,17.79
2018-05-10T14:08:12.675Z,17.94
2018-05-10T14:13:38.764Z,17.80
2018-05-10T14:16:07.067Z,17.56
2018-05-10T14:18:35.352Z,17.62
2018-05-10T14:21:03.649Z,17.59
2018-05-10T14:23:31.934Z,17.67
2018-05-10T14:26:00.237Z,17.81
2018-05-10T14:28:28.519Z,17.78
2018-05-10T14:30:56.814Z,17.81
2018-05-10T14:33:25.106Z,17.89
2018-05-10T14:35:53.396Z,17.94
2018-05-10T14:38:21.680Z,17.97
2018-05-10T14:40:50.942Z,18.04
2018-05-10T14:43:19.228Z,18.08
2018-05-10T14:45:47.533Z,17.73
2018-05-10T14:48:15.843Z,17.92
2018-05-10T14:50:44.139Z,18.06
2018-05-10T14:53:12.435Z,18.38
2018-05-10T14:55:40.731Z,18.30
2018-05-10T14:58:09.013Z,18.18
2018-05-10T15:00:37.303Z,18.35
2018-05-10T15:03:05.590Z,18.55
2018-05-10T15:05:34.164Z,18.82
2018-05-10T15:08:02.479Z,18.58
2018-05-10T15:10:30.766Z,18.42
2018-05-10T15:12:59.064Z,18.56
2018-05-10T15:15:27.342Z,18.75
2018-05-10T15:17:55.635Z,18.68
2018-05-10T15:20:23.910Z,18.79
2018-05-10T15:22:52.226Z,19.26
2018-05-10T15:25:20.482Z,18.97
2018-05-10T15:27:48.775Z,18.82
2018-05-10T15:30:17.062Z,18.95
2018-05-10T15:32:45.366Z,18.90
2018-05-10T15:35:13.654Z,18.98
2018-05-10T15:37:41.947Z,19.01
2018-05-10T15:40:10.240Z,19.02
2018-05-10T15:42:38.526Z,19.02
2018-05-10T15:45:06.810Z,18.96
2018-05-10T15:47:35.102Z,18.59
2018-05-10T15:50:03.469Z,18.74
2018-05-10T15:52:31.710Z,18.75
2018-05-10T15:55:00.007Z,18.77
2018-05-10T15:57:28.299Z,19.20
2018-05-10T15:59:56.574Z,18.91
2018-05-10T16:02:24.846Z,18.72
2018-05-10T16:04:53.130Z,19.04
2018-05-10T16:07:21.412Z,19.02
2018-05-10T16:09:49.695Z,19.21
2018-05-10T16:12:17.970Z,19.16
2018-05-10T16:14:46.267Z,19.29
2018-05-10T16:17:14.550Z,19.56
2018-05-10T16:19:42.845Z,19.61
2018-05-10T16:22:11.114Z,19.69
2018-05-10T16:24:39.406Z,19.76
2018-05-10T16:27:07.689Z,19.65
2018-05-10T16:29:35.966Z,19.35
2018-05-10T16:32:04.265Z,19.46
2018-05-10T16:34:32.534Z,19.08
2018-05-10T16:37:00.811Z,19.03
2018-05-10T16:39:29.173Z,18.85
2018-05-10T16:41:57.418Z,18.82
2018-05-10T16:44:25.727Z,18.54
2018-05-10T16:46:54.011Z,18.75
2018-05-10T16:49:22.282Z,18.78
2018-05-10T16:51:50.576Z,18.48
2018-05-10T16:54:18.846Z,18.49
2018-05-10T16:56:47.145Z,18.58
2018-05-10T16:59:15.410Z,18.45
2018-05-10T17:01:43.721Z,18.51
2018-05-10T17:04:12.065Z,18.70
2018-05-10T17:06:40.354Z,18.46
2018-05-10T17:09:08.617Z,18.74
2018-05-10T17:11:36.914Z,18.55
2018-05-10T17:14:05.190Z,18.32
2018-05-10T17:16:33.462Z,18.48
2018-05-10T17:19:01.746Z,18.41
2018-05-10T17:21:30.030Z,18.43
2018-05-10T17:23:58.313Z,18.34
2018-05-10T17:26:26.586Z,18.33
2018-05-10T17:28:54.890Z,18.34
2018-05-10T17:31:23.201Z,18.31
2018-05-10T17:33:51.474Z,18.34
2018-05-10T17:36:19.762Z,18.01
2018-05-10T17:38:48.042Z,18.03
2018-05-10T17:41:16.326Z,18.18
2018-05-10T17:43:45.562Z,18.13
2018-05-10T17:46:13.834Z,18.15
2018-05-10T17:48:42.121Z,18.25
2018-05-10T17:51:10.399Z,18.27
2018-05-10T17:53:38.670Z,18.30
2018-05-10T17:56:06.955Z,18.36
2018-05-10T17:58:35.235Z,18.18
2018-05-10T18:01:03.520Z,18.16
2018-05-10T18:03:31.795Z,18.34
2018-05-10T18:06:00.083Z,18.37
2018-05-10T18:08:28.361Z,18.34
2018-05-10T18:10:56.653Z,18.32
2018-05-10T18:13:24.930Z,18.30
2018-05-10T18:15:53.206Z,18.41
2018-05-10T18:18:21.487Z,18.34
2018-05-10T18:20:49.754Z,18.38
2018-05-10T18:23:18.093Z,18.27
2018-05-10T18:25:46.308Z,18.41
2018-05-10T18:28:14.598Z,18.33
2018-05-10T18:30:42.902Z,18.29
2018-05-10T18:33:11.200Z,18.35
2018-05-10T18:35:39.462Z,18.31
2018-05-10T18:38:07.872Z,18.32
2018-05-10T18:40:36.150Z,18.30
2018-05-10T18:43:04.431Z,18.27
2018-05-10T18:45:32.707Z,18.35
2018-05-10T18:48:00.982Z,18.33
2018-05-10T18:50:29.279Z,18.33
2018-05-10T18:52:57.577Z,18.32
2018-05-10T18:55:25.854Z,18.30
2018-05-10T18:57:54.127Z,18.13
2018-05-10T19:00:22.431Z,18.18
2018-05-10T19:02:50.694Z,18.14
2018-05-10T19:05:19.007Z,18.24
2018-05-10T19:07:47.283Z,18.19
2018-05-10T19:10:15.577Z,18.01
2018-05-10T19:12:43.857Z,18.02
2018-05-10T19:15:12.154Z,18.01
2018-05-10T19:17:40.425Z,17.94
2018-05-10T19:20:08.707Z,17.85
2018-05-10T19:22:36.989Z,17.96
2018-05-10T19:25:05.288Z,17.74
2018-05-10T19:27:33.581Z,17.93
2018-05-10T19:30:01.853Z,17.82
2018-05-10T19:32:30.134Z,17.86
2018-05-10T19:34:58.408Z,17.89
2018-05-10T19:37:26.682Z,17.87
2018-05-10T19:39:54.960Z,17.91
2018-05-10T19:42:23.238Z,18.00
2018-05-10T19:44:51.537Z,17.88
2018-05-10T19:47:19.819Z,17.79
2018-05-10T19:49:48.098Z,17.84
2018-05-10T19:52:16.368Z,17.80
2018-05-10T19:54:44.650Z,17.75
2018-05-10T19:57:12.926Z,17.66
2018-05-10T19:59:41.211Z,18.07
2018-05-10T20:02:09.509Z,18.37
2018-05-10T20:04:37.787Z,18.47
2018-05-10T20:07:10.710Z,18.58
2018-05-10T20:09:39.009Z,18.52
2018-05-10T20:12:07.294Z,18.63
2018-05-10T20:14:35.570Z,18.75
2018-05-10T20:17:03.951Z,18.58
2018-05-10T20:19:32.138Z,18.74
2018-05-10T20:22:00.414Z,18.57
2018-05-10T20:24:30.678Z,18.57
2018-05-10T20:26:58.967Z,18.60
2018-05-10T20:29:27.238Z,18.66
2018-05-10T20:31:55.530Z,18.72
2018-05-10T20:34:23.829Z,18.69
2018-05-10T20:36:52.149Z,18.84
2018-05-10T20:39:20.423Z,18.82
2018-05-10T20:41:48.866Z,19.41
2018-05-10T20:44:17.153Z,19.94
2018-05-10T20:46:45.435Z,20.19
2018-05-10T20:49:13.719Z,20.35
2018-05-10T20:51:42.896Z,20.36
2018-05-10T20:54:12.150Z,20.63
2018-05-10T20:56:40.647Z,20.37
2018-05-10T20:59:08.940Z,20.12
2018-05-10T21:01:37.409Z,20.38
2018-05-10T21:04:05.698Z,20.39
2018-05-10T21:06:33.970Z,21.00
2018-05-10T21:09:02.379Z,20.82
2018-05-10T21:11:30.647Z,20.59
2018-05-10T21:13:58.909Z,20.65
2018-05-10T21:16:27.437Z,20.30
2018-05-10T21:18:55.614Z,19.35
2018-05-10T21:21:23.970Z,20.19
2018-05-10T21:23:52.246Z,19.73
2018-05-10T21:26:20.526Z,18.68
2018-05-10T21:28:48.798Z,18.36
2018-05-10T21:31:17.077Z,18.62
2018-05-10T21:33:45.350Z,18.48
2018-05-10T21:36:13.638Z,17.65
2018-05-10T21:38:41.894Z,18.01
2018-05-10T21:41:10.178Z,17.47
2018-05-10T21:43:38.454Z,17.84
2018-05-10T21:46:06.718Z,18.46
2018-05-10T21:48:35.002Z,18.77
2018-05-10T21:51:03.270Z,19.21
2018-05-10T21:53:31.641Z,19.53
2018-05-10T21:55:59.899Z,19.22
2018-05-10T21:58:28.195Z,19.31
2018-05-10T22:00:56.490Z,17.92
2018-05-10T22:03:24.766Z,18.43
2018-05-10T22:05:53.661Z,18.11
2018-05-10T22:08:21.918Z,17.39
2018-05-10T22:10:50.190Z,17.20
2018-05-10T22:13:18.460Z,17.43
2018-05-10T22:15:46.907Z,16.85
2018-05-10T22:18:15.163Z,16.85
2018-05-10T22:20:43.453Z,16.61
2018-05-10T22:23:11.731Z,16.70
2018-05-10T22:25:40.007Z,16.86
2018-05-10T22:28:08.275Z,16.59
2018-05-10T22:30:36.555Z,16.30
2018-05-10T22:33:04.826Z,16.35
2018-05-10T22:35:33.150Z,16.13
2018-05-10T22:38:01.398Z,16.20
2018-05-10T22:40:29.675Z,16.18
2018-05-10T22:42:57.955Z,16.25
2018-05-10T22:45:26.222Z,16.23
2018-05-10T22:47:54.537Z,16.23
2018-05-10T22:50:22.774Z,16.00
2018-05-10T22:52:51.050Z,16.08
2018-05-10T22:55:19.317Z,16.06
2018-05-10T22:57:47.598Z,16.13
2018-05-10T23:00:15.867Z,16.06
2018-05-10T23:02:44.149Z,16.14
2018-05-10T23:05:12.429Z,16.25
2018-05-10T23:07:40.702Z,16.32
2018-05-10T23:10:08.982Z,16.04
2018-05-10T23:12:37.258Z,16.07
2018-05-10T23:15:05.533Z,16.01
2018-05-10T23:17:33.805Z,16.07
2018-05-10T23:20:02.090Z,15.93
2018-05-10T23:22:30.355Z,16.23
2018-05-10T23:24:58.638Z,15.95
2018-05-10T23:27:26.909Z,16.06
2018-05-10T23:29:55.199Z,16.02
2018-05-10T23:32:23.466Z,15.95
2018-05-10T23:34:51.746Z,15.90
2018-05-10T23:37:20.018Z,15.88
2018-05-10T23:39:48.294Z,15.51
2018-05-10T23:42:16.569Z,15.44
2018-05-10T23:44:44.838Z,15.35
2018-05-10T23:47:13.118Z,15.49
2018-05-10T23:49:41.390Z,15.49
2018-05-10T23:52:09.671Z,15.25
2018-05-10T23:54:37.950Z,15.64
2018-05-10T23:57:06.238Z,15.66
2018-05-10T23:59:34.518Z,15.52
